createdAt,value
2022-11-06T00:00:07.096Z,93.40
2022-11-06T00:04:09.929Z,93.40
2022-11-06T00:08:13.166Z,93.50
2022-11-06T00:12:18.196Z,93.50
2022-11-06T00:16:21.913Z,93.50
2022-11-06T00:20:24.860Z,93.50
2022-11-06T00:24:27.811Z,93.50
2022-11-06T00:28:31.910Z,93.50
2022-11-06T00:32:34.831Z,93.50
2022-11-06T00:36:38.106Z,93.50
2022-11-06T00:40:40.889Z,93.80
2022-11-06T00:44:45.022Z,93.60
2022-11-06T00:48:48.241Z,93.70
2022-11-06T00:52:51.169Z,93.90
2022-11-06T00:56:54.206Z,94.00
2022-11-06T01:01:05.834Z,94.10
2022-11-06T01:05:08.835Z,94.20
2022-11-06T01:09:13.920Z,94.30
2022-11-06T01:13:17.135Z,94.30
2022-11-06T01:17:21.282Z,94.30
2022-11-06T01:21:26.820Z,94.40
2022-11-06T01:25:29.663Z,94.40
2022-11-06T01:29:32.825Z,94.40
2022-11-06T01:33:37.005Z,94.60
2022-11-06T01:37:39.861Z,94.30
2022-11-06T01:41:44.954Z,94.30
2022-11-06T01:45:50.243Z,94.30
2022-11-06T01:49:58.199Z,94.30
2022-11-06T01:54:03.728Z,94.30
2022-11-06T01:58:09.534Z,94.40
2022-11-06T02:02:14.220Z,94.50
2022-11-06T02:06:18.675Z,94.50
2022-11-06T02:10:21.536Z,94.60
2022-11-06T02:14:32.473Z,94.70
2022-11-06T02:18:48.617Z,94.70
2022-11-06T02:23:09.153Z,94.60
2022-11-06T02:27:15.834Z,94.60
2022-11-06T02:31:24.322Z,94.50
2022-11-06T02:35:31.013Z,94.40
2022-11-06T02:39:38.147Z,94.40
2022-11-06T02:43:46.401Z,94.30
2022-11-06T02:47:54.364Z,94.30
2022-11-06T02:52:00.891Z,94.40
2022-11-06T02:56:08.047Z,94.50
2022-11-06T03:00:14.976Z,94.50
2022-11-06T03:04:22.382Z,94.50
2022-11-06T03:08:31.443Z,94.50
2022-11-06T03:12:38.287Z,94.50
2022-11-06T03:16:52.164Z,94.50
2022-11-06T03:21:01.413Z,94.80
2022-11-06T03:25:11.915Z,94.50
2022-11-06T03:29:20.124Z,94.50
2022-11-06T03:33:31.505Z,94.50
2022-11-06T03:37:37.374Z,94.50
2022-11-06T03:41:45.031Z,94.40
2022-11-06T03:45:50.396Z,94.40
2022-11-06T03:49:59.646Z,94.40
2022-11-06T03:54:06.419Z,94.40
2022-11-06T03:58:12.182Z,94.50
2022-11-06T04:02:17.329Z,94.50
2022-11-06T04:06:28.011Z,94.50
2022-11-06T04:10:52.378Z,94.50
2022-11-06T04:14:58.469Z,94.50
2022-11-06T04:19:01.653Z,94.50
2022-11-06T04:23:13.854Z,94.40
2022-11-06T04:27:28.379Z,94.40
2022-11-06T04:31:38.410Z,94.40
2022-11-06T04:35:55.370Z,94.30
2022-11-06T04:40:08.217Z,94.30
2022-11-06T04:44:15.932Z,94.30
2022-11-06T04:48:19.995Z,94.30
2022-11-06T04:52:26.350Z,94.30
2022-11-06T04:56:35.596Z,94.30
2022-11-06T05:00:41.954Z,94.30
2022-11-06T05:04:45.587Z,94.40
2022-11-06T05:08:48.413Z,94.40
2022-11-06T05:12:52.564Z,94.40
2022-11-06T05:16:55.378Z,94.40
2022-11-06T05:21:14.314Z,94.40
2022-11-06T05:25:17.297Z,94.50
2022-11-06T05:29:21.447Z,94.50
2022-11-06T05:33:24.690Z,94.50
2022-11-06T05:37:28.963Z,94.50
2022-11-06T05:41:31.890Z,94.50
2022-11-06T05:45:36.256Z,94.40
2022-11-06T05:49:39.073Z,94.40
2022-11-06T05:53:41.899Z,94.30
2022-11-06T05:57:44.856Z,94.30
2022-11-06T06:01:49.173Z,94.30
2022-11-06T06:05:52.414Z,94.40
2022-11-06T06:09:55.287Z,94.40
2022-11-06T06:13:58.087Z,94.40
2022-11-06T06:18:02.204Z,94.40
2022-11-06T06:22:04.993Z,94.40
2022-11-06T06:26:07.828Z,94.40
2022-11-06T06:30:12.033Z,94.40
2022-11-06T06:34:16.574Z,94.40
2022-11-06T06:38:19.475Z,94.40
2022-11-06T06:42:24.117Z,94.40
2022-11-06T06:46:30.222Z,94.50
2022-11-06T06:50:34.831Z,94.50
2022-11-06T06:54:38.252Z,94.60
2022-11-06T06:58:41.093Z,94.70
2022-11-06T07:02:43.897Z,95.10
2022-11-06T07:06:48.121Z,94.90
2022-11-06T07:10:50.933Z,95.00
2022-11-06T07:14:54.214Z,95.00
2022-11-06T07:18:58.205Z,94.90
2022-11-06T07:23:07.183Z,94.90
2022-11-06T07:27:09.990Z,94.90
2022-11-06T07:31:13.339Z,95.00
2022-11-06T07:35:16.966Z,95.00
2022-11-06T07:39:21.085Z,95.00
2022-11-06T07:43:26.766Z,95.00
2022-11-06T07:47:31.586Z,94.90
2022-11-06T07:51:34.379Z,94.80
2022-11-06T07:55:42.127Z,94.70
2022-11-06T07:59:45.217Z,94.70
2022-11-06T08:03:48.054Z,94.50
2022-11-06T08:07:50.979Z,94.40
2022-11-06T08:11:55.107Z,94.20
2022-11-06T08:15:57.922Z,94.00
2022-11-06T08:20:00.767Z,93.80
2022-11-06T08:24:03.640Z,93.60
2022-11-06T08:28:08.145Z,93.30
2022-11-06T08:32:10.949Z,93.00
2022-11-06T08:36:13.833Z,92.70
2022-11-06T08:40:16.765Z,92.60
2022-11-06T08:44:20.965Z,92.60
2022-11-06T08:48:23.768Z,92.50
2022-11-06T08:52:31.216Z,92.30
2022-11-06T08:56:36.637Z,92.10
2022-11-06T09:00:41.125Z,92.20
2022-11-06T09:04:43.997Z,92.20
2022-11-06T09:08:46.800Z,91.90
2022-11-06T09:12:49.664Z,91.00
2022-11-06T09:16:53.864Z,90.80
2022-11-06T09:20:56.861Z,90.00
2022-11-06T09:25:04.347Z,88.20
2022-11-06T09:29:07.408Z,87.20
2022-11-06T09:33:13.715Z,85.30
2022-11-06T09:37:16.839Z,85.20
2022-11-06T09:41:28.175Z,85.80
2022-11-06T09:45:33.176Z,85.00
2022-11-06T09:49:42.955Z,85.80
2022-11-06T09:53:49.756Z,84.40
2022-11-06T09:57:55.338Z,85.70
2022-11-06T10:02:01.608Z,85.40
2022-11-06T10:06:06.950Z,85.40
2022-11-06T10:10:16.856Z,85.10
2022-11-06T10:14:32.513Z,85.10
2022-11-06T10:18:50.224Z,85.10
2022-11-06T10:23:05.345Z,85.40
2022-11-06T10:27:16.842Z,85.80
2022-11-06T10:31:32.959Z,85.10
2022-11-06T10:35:39.477Z,84.80
2022-11-06T10:39:43.885Z,85.00
2022-11-06T10:43:52.397Z,84.50
2022-11-06T10:48:00.123Z,84.00
2022-11-06T10:52:25.543Z,84.00
2022-11-06T10:56:41.904Z,84.20
2022-11-06T11:00:45.263Z,84.40
2022-11-06T11:04:48.183Z,84.20
2022-11-06T11:08:52.327Z,84.60
2022-11-06T11:13:00.034Z,83.60
2022-11-06T11:17:09.169Z,83.20
2022-11-06T11:21:27.739Z,82.00
2022-11-06T11:25:30.593Z,83.10
2022-11-06T11:29:42.666Z,82.40
2022-11-06T11:33:52.287Z,83.60
2022-11-06T11:38:07.907Z,84.10
2022-11-06T11:42:25.741Z,84.20
2022-11-06T11:46:29.887Z,84.00
2022-11-06T11:50:34.625Z,85.20
2022-11-06T11:54:38.643Z,84.50
2022-11-06T11:58:41.828Z,85.00
2022-11-06T12:02:48.908Z,84.30
2022-11-06T12:06:58.338Z,84.40
2022-11-06T12:11:04.556Z,82.10
2022-11-06T12:15:20.283Z,82.40
2022-11-06T12:19:27.530Z,82.40
2022-11-06T12:23:43.431Z,82.80
2022-11-06T12:27:51.536Z,82.50
2022-11-06T12:32:00.480Z,82.60
2022-11-06T12:36:09.647Z,82.90
2022-11-06T12:40:25.033Z,83.50
2022-11-06T12:44:28.350Z,83.10
2022-11-06T12:49:06.033Z,82.90
2022-11-06T12:53:23.807Z,82.60
2022-11-06T12:57:37.716Z,81.90
2022-11-06T13:01:57.679Z,82.70
2022-11-06T13:06:11.893Z,82.80
2022-11-06T13:10:30.528Z,82.90
2022-11-06T13:14:41.160Z,82.70
2022-11-06T13:18:53.056Z,81.50
2022-11-06T13:23:04.349Z,81.10
2022-11-06T13:27:16.809Z,81.80
2022-11-06T13:31:23.298Z,81.40
2022-11-06T13:35:27.410Z,80.80
2022-11-06T13:39:37.558Z,78.90
2022-11-06T13:43:45.981Z,78.80
2022-11-06T13:48:01.646Z,78.30
2022-11-06T13:52:11.824Z,78.00
2022-11-06T13:56:33.383Z,78.20
2022-11-06T14:00:48.850Z,76.90
2022-11-06T14:05:15.623Z,75.80
2022-11-06T14:09:21.500Z,77.00
2022-11-06T14:13:31.626Z,75.80
2022-11-06T14:17:36.527Z,75.80
2022-11-06T14:21:49.950Z,75.80
2022-11-06T14:26:02.085Z,76.10
2022-11-06T14:30:07.843Z,76.00
2022-11-06T14:34:28.399Z,75.80
2022-11-06T14:38:41.498Z,76.70
2022-11-06T14:42:47.545Z,77.70
2022-11-06T14:46:52.350Z,77.70
2022-11-06T14:50:58.810Z,78.10
2022-11-06T14:55:09.548Z,78.70
2022-11-06T14:59:21.034Z,79.20
2022-11-06T15:03:29.331Z,79.90
2022-11-06T15:08:10.432Z,80.10
2022-11-06T15:12:13.431Z,80.10
2022-11-06T15:16:16.520Z,80.60
2022-11-06T15:20:24.361Z,80.70
2022-11-06T15:24:33.997Z,80.70
2022-11-06T15:28:44.514Z,80.90
2022-11-06T15:32:50.221Z,80.40
2022-11-06T15:36:57.140Z,80.50
2022-11-06T15:41:01.367Z,79.90
2022-11-06T15:45:10.267Z,80.10
2022-11-06T15:49:21.020Z,79.70
2022-11-06T15:53:27.396Z,78.90
2022-11-06T15:57:32.489Z,79.40
2022-11-06T16:01:35.574Z,79.10
2022-11-06T16:05:39.048Z,78.70
2022-11-06T16:09:43.240Z,78.60
2022-11-06T16:13:48.286Z,78.40
2022-11-06T16:17:51.131Z,78.10
2022-11-06T16:21:58.038Z,77.60
2022-11-06T16:26:03.548Z,77.70
2022-11-06T16:30:24.841Z,78.20
2022-11-06T16:34:37.399Z,78.30
2022-11-06T16:38:43.652Z,78.00
2022-11-06T16:43:02.225Z,78.30
2022-11-06T16:47:14.511Z,78.60
2022-11-06T16:51:31.179Z,78.50
2022-11-06T16:55:34.346Z,78.90
2022-11-06T16:59:38.078Z,78.90
2022-11-06T17:03:48.930Z,79.10
2022-11-06T17:08:06.848Z,80.10
2022-11-06T17:12:12.076Z,79.80
2022-11-06T17:16:17.740Z,80.00
2022-11-06T17:20:21.923Z,80.00
2022-11-06T17:24:36.621Z,80.10
2022-11-06T17:28:40.492Z,80.50
2022-11-06T17:32:43.531Z,80.80
2022-11-06T17:36:47.712Z,80.70
2022-11-06T17:40:50.969Z,80.80
2022-11-06T17:44:53.890Z,81.10
2022-11-06T17:48:57.479Z,81.30
2022-11-06T17:53:01.844Z,81.70
2022-11-06T17:57:13.151Z,82.10
2022-11-06T18:01:16.121Z,82.20
2022-11-06T18:05:19.849Z,82.60
2022-11-06T18:09:25.409Z,83.20
2022-11-06T18:13:28.954Z,83.10
2022-11-06T18:17:32.715Z,83.20
2022-11-06T18:21:39.399Z,83.50
2022-11-06T18:25:57.892Z,83.90
2022-11-06T18:30:00.922Z,84.00
2022-11-06T18:34:05.675Z,84.40
2022-11-06T18:38:09.801Z,85.00
2022-11-06T18:42:14.377Z,85.60
2022-11-06T18:46:19.550Z,86.30
2022-11-06T18:50:22.660Z,87.10
2022-11-06T18:54:25.571Z,87.50
2022-11-06T18:58:33.913Z,87.60
2022-11-06T19:02:42.324Z,88.00
2022-11-06T19:06:52.299Z,88.60
2022-11-06T19:10:57.942Z,88.70
2022-11-06T19:15:02.781Z,88.90
2022-11-06T19:19:07.462Z,88.60
2022-11-06T19:23:13.585Z,88.40
2022-11-06T19:27:17.052Z,88.60
2022-11-06T19:31:28.992Z,88.60
2022-11-06T19:35:33.265Z,88.60
2022-11-06T19:39:37.380Z,88.60
2022-11-06T19:43:41.050Z,88.80
2022-11-06T19:47:45.550Z,89.10
2022-11-06T19:51:49.081Z,89.20
2022-11-06T19:55:53.307Z,89.30
2022-11-06T19:59:56.202Z,89.30
2022-11-06T20:04:00.465Z,89.40
2022-11-06T20:08:03.343Z,89.50
2022-11-06T20:12:07.450Z,89.70
2022-11-06T20:16:15.610Z,89.10
2022-11-06T20:20:20.000Z,89.00
2022-11-06T20:24:22.832Z,88.70
2022-11-06T20:28:25.885Z,88.90
2022-11-06T20:32:28.759Z,88.90
2022-11-06T20:36:34.568Z,88.60
2022-11-06T20:40:37.608Z,87.90
2022-11-06T20:44:40.640Z,87.40
2022-11-06T20:48:45.750Z,86.90
2022-11-06T20:52:50.445Z,86.70
2022-11-06T20:56:53.259Z,86.40
2022-11-06T21:01:02.355Z,86.10
2022-11-06T21:05:06.026Z,85.30
2022-11-06T21:09:10.557Z,84.40
2022-11-06T21:13:13.641Z,83.70
2022-11-06T21:17:16.898Z,83.50
2022-11-06T21:21:22.978Z,83.20
2022-11-06T21:25:27.236Z,83.30
2022-11-06T21:29:30.287Z,83.40
2022-11-06T21:33:33.090Z,83.40
2022-11-06T21:37:36.012Z,83.50
2022-11-06T21:41:43.794Z,83.90
2022-11-06T21:45:46.577Z,84.20
2022-11-06T21:49:53.817Z,84.40
2022-11-06T21:54:14.700Z,84.50
2022-11-06T21:58:21.577Z,84.90
2022-11-06T22:02:24.510Z,85.20
2022-11-06T22:06:28.762Z,85.50
2022-11-06T22:10:31.581Z,85.80
2022-11-06T22:14:35.730Z,86.20
2022-11-06T22:18:39.191Z,86.40
2022-11-06T22:22:42.019Z,86.50
2022-11-06T22:26:44.931Z,86.70
2022-11-06T22:30:49.128Z,87.00
2022-11-06T22:34:51.961Z,87.10
2022-11-06T22:38:55.192Z,87.20
2022-11-06T22:42:58.016Z,87.30
2022-11-06T22:47:02.790Z,87.70
2022-11-06T22:51:07.189Z,88.10
2022-11-06T22:55:10.176Z,88.40
2022-11-06T22:59:13.511Z,88.40
2022-11-06T23:03:18.278Z,88.50
2022-11-06T23:07:21.237Z,88.90
2022-11-06T23:11:25.551Z,89.00
2022-11-06T23:15:28.379Z,89.10
2022-11-06T23:19:32.989Z,89.20
2022-11-06T23:23:36.087Z,89.30
2022-11-06T23:27:39.519Z,89.50
2022-11-06T23:31:42.394Z,89.70
2022-11-06T23:35:46.569Z,89.90
2022-11-06T23:39:49.408Z,90.00
2022-11-06T23:43:52.314Z,90.00
2022-11-06T23:47:55.180Z,90.20
2022-11-06T23:52:00.171Z,90.30
2022-11-06T23:56:06.516Z,90.40
